createdAt,value
2018-05-11T00:02:32.074Z,21.73
2018-05-11T00:05:07.046Z,20.43
2018-05-11T00:07:41.322Z,23.33
2018-05-11T00:10:15.228Z,21.60
2018-05-11T00:12:49.341Z,19.60
2018-05-11T00:15:23.386Z,21.13
2018-05-11T00:17:59.309Z,26.40
2018-05-11T00:20:34.054Z,27.27
2018-05-11T00:23:08.144Z,21.23
2018-05-11T00:25:41.987Z,21.00
2018-05-11T00:28:16.928Z,23.73
2018-05-11T00:30:51.053Z,22.83
2018-05-11T00:33:25.063Z,23.10
2018-05-11T00:35:59.212Z,19.00
2018-05-11T00:38:33.256Z,19.23
2018-05-11T00:41:07.333Z,19.53
2018-05-11T00:43:41.172Z,32.47
2018-05-11T00:46:15.108Z,20.87
2018-05-11T00:48:48.951Z,27.13
2018-05-11T00:51:22.959Z,27.30
2018-05-11T00:53:57.687Z,24.17
2018-05-11T00:56:31.564Z,24.60
2018-05-11T00:59:06.525Z,19.93
2018-05-11T01:01:41.500Z,26.03
2018-05-11T01:04:24.520Z,24.97
2018-05-11T01:06:58.633Z,21.17
2018-05-11T01:09:32.951Z,21.80
2018-05-11T01:12:06.914Z,24.23
2018-05-11T01:14:49.064Z,24.67
2018-05-11T01:17:22.902Z,28.30
2018-05-11T01:19:58.551Z,24.73
2018-05-11T01:22:33.497Z,21.87
2018-05-11T01:25:08.591Z,22.67
2018-05-11T01:27:42.642Z,22.90
2018-05-11T01:30:16.652Z,30.33
2018-05-11T01:32:50.353Z,18.33
2018-05-11T01:35:24.526Z,18.33
2018-05-11T01:37:59.352Z,28.37
2018-05-11T01:40:33.681Z,22.73
2018-05-11T01:43:07.698Z,17.57
2018-05-11T01:45:41.908Z,23.37
2018-05-11T01:48:15.986Z,20.87
2018-05-11T01:50:50.773Z,21.53
2018-05-11T01:53:25.474Z,20.67
2018-05-11T01:55:59.456Z,24.80
2018-05-11T01:58:33.500Z,22.40
2018-05-11T02:01:07.920Z,27.37
2018-05-11T02:03:41.828Z,23.20
2018-05-11T02:06:17.786Z,21.00
2018-05-11T02:08:52.202Z,20.93
2018-05-11T02:11:26.421Z,22.03
2018-05-11T02:14:02.276Z,17.43
2018-05-11T02:16:36.245Z,18.47
2018-05-11T02:19:10.295Z,20.00
2018-05-11T02:21:45.024Z,17.20
2018-05-11T02:24:19.039Z,21.87
2018-05-11T02:26:53.221Z,22.43
2018-05-11T02:29:27.771Z,19.77
2018-05-11T02:32:01.970Z,24.43
2018-05-11T02:34:36.100Z,28.37
2018-05-11T02:37:10.926Z,25.97
2018-05-11T02:39:45.106Z,31.50
2018-05-11T02:42:19.329Z,27.70
2018-05-11T02:44:53.240Z,27.80
2018-05-11T02:47:27.378Z,27.10
2018-05-11T02:50:02.324Z,26.60
2018-05-11T02:52:36.315Z,20.07
2018-05-11T02:55:10.704Z,23.80
2018-05-11T02:57:44.843Z,31.53
2018-05-11T03:00:18.956Z,25.47
2018-05-11T03:02:53.692Z,28.70
2018-05-11T03:05:27.926Z,29.60
2018-05-11T03:08:02.346Z,30.43
2018-05-11T03:10:37.200Z,29.73
2018-05-11T03:13:11.269Z,23.67
2018-05-11T03:15:45.369Z,30.93
2018-05-11T03:18:20.309Z,26.00
2018-05-11T03:20:54.247Z,31.60
2018-05-11T03:23:29.004Z,27.90
2018-05-11T03:26:04.079Z,34.57
2018-05-11T03:28:38.145Z,29.50
2018-05-11T03:31:12.220Z,25.00
2018-05-11T03:33:46.147Z,23.13
2018-05-11T03:36:20.000Z,21.53
2018-05-11T03:38:53.926Z,32.33
2018-05-11T03:41:27.974Z,29.00
2018-05-11T03:44:03.520Z,27.63
2018-05-11T03:46:37.504Z,28.87
2018-05-11T03:49:11.616Z,30.83
2018-05-11T03:51:45.386Z,28.70
2018-05-11T03:54:23.353Z,22.93
2018-05-11T03:56:58.087Z,28.17
2018-05-11T03:59:32.841Z,27.37
2018-05-11T04:02:18.991Z,32.93
2018-05-11T04:05:04.895Z,27.67
2018-05-11T04:07:50.993Z,31.57
2018-05-11T04:10:26.232Z,24.43
2018-05-11T04:13:00.753Z,34.90
2018-05-11T04:15:35.174Z,28.43
2018-05-11T04:18:10.620Z,26.97
2018-05-11T04:20:44.856Z,33.27
2018-05-11T04:23:18.652Z,23.93
2018-05-11T04:25:52.590Z,28.93
2018-05-11T04:28:28.130Z,30.57
2018-05-11T04:31:03.337Z,28.90
2018-05-11T04:33:37.412Z,28.03
2018-05-11T04:36:12.280Z,28.20
2018-05-11T04:38:48.244Z,32.53
2018-05-11T04:41:22.204Z,38.73
2018-05-11T04:43:56.303Z,31.33
2018-05-11T04:46:31.069Z,33.83
2018-05-11T04:49:05.179Z,34.93
2018-05-11T04:51:39.209Z,32.73
2018-05-11T04:54:13.320Z,37.50
2018-05-11T04:56:47.526Z,31.37
2018-05-11T04:59:21.338Z,36.33
2018-05-11T05:01:55.449Z,31.70
2018-05-11T05:04:29.459Z,34.47
2018-05-11T05:07:03.445Z,35.43
2018-05-11T05:09:37.682Z,31.07
2018-05-11T05:12:11.692Z,38.33
2018-05-11T05:14:45.601Z,34.93
2018-05-11T05:17:19.820Z,30.97
2018-05-11T05:19:53.916Z,39.53
2018-05-11T05:22:27.832Z,31.47
2018-05-11T05:25:01.873Z,27.17
2018-05-11T05:27:35.883Z,31.13
2018-05-11T05:30:09.858Z,24.57
2018-05-11T05:32:43.845Z,27.80
2018-05-11T05:35:17.814Z,28.90
2018-05-11T05:37:51.758Z,22.47
2018-05-11T05:40:26.552Z,19.87
2018-05-11T05:43:00.494Z,23.03
2018-05-11T05:45:34.515Z,23.70
2018-05-11T05:48:08.484Z,17.57
2018-05-11T05:50:42.609Z,17.83
2018-05-11T05:53:16.956Z,16.63
2018-05-11T05:55:50.790Z,23.47
2018-05-11T05:58:24.700Z,18.50
2018-05-11T06:00:58.561Z,16.73
2018-05-11T06:03:33.482Z,20.57
2018-05-11T06:06:07.870Z,20.07
2018-05-11T06:08:42.045Z,21.63
2018-05-11T06:11:16.793Z,21.10
2018-05-11T06:13:51.858Z,18.07
2018-05-11T06:16:25.731Z,18.63
2018-05-11T06:19:00.196Z,16.33
2018-05-11T06:21:35.080Z,15.30
2018-05-11T06:24:09.146Z,18.63
2018-05-11T06:26:43.910Z,22.10
2018-05-11T06:29:18.061Z,18.43
2018-05-11T06:31:52.603Z,21.53
2018-05-11T06:34:26.768Z,17.50
2018-05-11T06:37:01.522Z,18.53
2018-05-11T06:39:36.711Z,17.40
2018-05-11T06:42:10.594Z,22.90
2018-05-11T06:44:44.539Z,18.37
2018-05-11T06:47:18.306Z,16.43
2018-05-11T06:49:52.076Z,26.20
2018-05-11T06:52:26.709Z,21.00
2018-05-11T06:55:00.587Z,23.27
2018-05-11T06:57:34.424Z,18.13
2018-05-11T07:00:08.553Z,16.63
2018-05-11T07:02:43.164Z,18.10
2018-05-11T07:05:17.816Z,21.70
2018-05-11T07:07:53.933Z,17.17
2018-05-11T07:10:28.669Z,18.70
2018-05-11T07:13:03.627Z,21.77
2018-05-11T07:15:37.701Z,24.70
2018-05-11T07:18:11.532Z,20.67
2018-05-11T07:20:45.761Z,18.70
2018-05-11T07:23:19.661Z,18.13
2018-05-11T07:25:53.427Z,16.37
2018-05-11T07:28:27.213Z,13.70
2018-05-11T07:31:01.127Z,17.43
2018-05-11T07:33:34.869Z,20.43
2018-05-11T07:36:08.729Z,15.00
2018-05-11T07:38:42.564Z,14.90
2018-05-11T07:41:10.765Z,15.87
2018-05-11T07:43:39.712Z,13.13
2018-05-11T07:46:08.009Z,16.47
2018-05-11T07:48:36.232Z,16.37
2018-05-11T07:51:04.507Z,17.20
2018-05-11T07:53:32.643Z,13.10
2018-05-11T07:56:01.625Z,12.23
2018-05-11T07:58:29.826Z,15.30
2018-05-11T08:00:58.042Z,8.13
2018-05-11T08:03:26.234Z,8.25
2018-05-11T08:05:54.441Z,8.67
2018-05-11T08:08:22.694Z,10.67
2018-05-11T08:10:50.877Z,8.80
2018-05-11T08:13:20.269Z,8.07
2018-05-11T08:15:48.454Z,9.07
2018-05-11T08:18:17.439Z,10.73
2018-05-11T08:20:45.677Z,6.03
2018-05-11T08:23:13.854Z,7.40
2018-05-11T08:25:42.109Z,9.17
2018-05-11T08:28:10.347Z,10.13
2018-05-11T08:30:39.370Z,7.23
2018-05-11T08:33:07.654Z,9.67
2018-05-11T08:35:36.601Z,7.27
2018-05-11T08:38:05.648Z,10.43
2018-05-11T08:40:33.861Z,8.23
2018-05-11T08:43:03.218Z,7.90
2018-05-11T08:45:31.460Z,10.57
2018-05-11T08:47:59.647Z,10.87
2018-05-11T08:50:27.860Z,10.33
2018-05-11T08:52:56.068Z,10.17
2018-05-11T08:55:24.904Z,9.77
2018-05-11T08:57:53.613Z,8.20
2018-05-11T09:00:22.016Z,6.87
2018-05-11T09:02:50.447Z,9.27
2018-05-11T09:05:18.784Z,8.93
2018-05-11T09:07:47.044Z,7.93
2018-05-11T09:10:15.254Z,9.13
2018-05-11T09:12:43.535Z,6.07
2018-05-11T09:15:11.725Z,7.70
2018-05-11T09:17:39.929Z,10.03
2018-05-11T09:20:08.173Z,10.47
2018-05-11T09:22:37.186Z,7.97
2018-05-11T09:25:05.361Z,9.63
2018-05-11T09:27:33.588Z,6.90
2018-05-11T09:30:01.812Z,7.57
2018-05-11T09:32:30.036Z,8.70
2018-05-11T09:34:58.219Z,6.83
2018-05-11T09:37:26.394Z,10.27
2018-05-11T09:39:54.596Z,9.53
2018-05-11T09:42:22.783Z,6.60
2018-05-11T09:44:51.746Z,6.93
2018-05-11T09:47:19.994Z,9.10
2018-05-11T09:49:48.209Z,7.60
2018-05-11T09:52:16.435Z,8.43
2018-05-11T09:54:44.728Z,7.30
2018-05-11T09:57:12.976Z,8.97
2018-05-11T09:59:42.246Z,7.10
2018-05-11T10:02:10.487Z,7.77
2018-05-11T10:04:38.667Z,5.93
2018-05-11T10:07:06.892Z,7.03
2018-05-11T10:09:35.124Z,6.77
2018-05-11T10:12:03.924Z,7.80
2018-05-11T10:14:32.153Z,8.33
2018-05-11T10:17:00.583Z,9.17
2018-05-11T10:19:28.818Z,9.27
2018-05-11T10:21:57.029Z,7.53
2018-05-11T10:24:25.992Z,8.37
2018-05-11T10:26:54.220Z,9.67
2018-05-11T10:29:22.486Z,8.37
2018-05-11T10:31:50.707Z,7.90
2018-05-11T10:34:18.930Z,7.30
2018-05-11T10:36:47.162Z,7.30
2018-05-11T10:39:15.538Z,10.03
2018-05-11T10:41:43.771Z,8.80
2018-05-11T10:44:11.964Z,9.03
2018-05-11T10:46:40.248Z,8.13
2018-05-11T10:49:08.476Z,11.97
2018-05-11T10:51:36.708Z,9.57
2018-05-11T10:54:04.892Z,9.80
2018-05-11T10:56:33.179Z,7.53
2018-05-11T10:59:02.176Z,9.33
2018-05-11T11:01:31.118Z,8.23
2018-05-11T11:03:59.403Z,10.50
2018-05-11T11:06:27.635Z,9.40
2018-05-11T11:08:55.808Z,8.93
2018-05-11T11:11:24.014Z,7.43
2018-05-11T11:13:52.219Z,7.37
2018-05-11T11:16:20.433Z,8.70
2018-05-11T11:18:48.668Z,8.87
2018-05-11T11:21:16.923Z,7.53
2018-05-11T11:23:45.168Z,8.47
2018-05-11T11:26:13.358Z,12.10
2018-05-11T11:28:41.577Z,10.17
2018-05-11T11:31:10.522Z,8.90
2018-05-11T11:33:38.771Z,6.57
2018-05-11T11:36:06.957Z,8.07
2018-05-11T11:38:35.165Z,9.20
2018-05-11T11:41:03.391Z,9.97
2018-05-11T11:43:31.580Z,7.40
2018-05-11T11:45:59.830Z,9.67
2018-05-11T11:48:28.064Z,10.23
2018-05-11T11:50:56.263Z,9.20
2018-05-11T11:53:25.297Z,8.73
2018-05-11T11:55:53.879Z,10.90
2018-05-11T11:58:22.329Z,9.03
2018-05-11T12:00:50.530Z,9.73
2018-05-11T12:03:18.801Z,9.97
2018-05-11T12:05:47.034Z,7.87
2018-05-11T12:08:16.027Z,6.13
2018-05-11T12:10:44.995Z,9.43
2018-05-11T12:13:13.372Z,10.33
2018-05-11T12:15:41.857Z,8.10
2018-05-11T12:18:10.841Z,10.37
2018-05-11T12:20:39.031Z,10.10
2018-05-11T12:23:08.213Z,9.20
2018-05-11T12:25:36.380Z,9.87
2018-05-11T12:28:04.601Z,6.63
2018-05-11T12:30:34.372Z,10.87
2018-05-11T12:33:02.626Z,9.90
2018-05-11T12:35:30.867Z,11.07
2018-05-11T12:37:59.124Z,8.50
2018-05-11T12:40:28.089Z,8.10
2018-05-11T12:42:56.304Z,7.57
2018-05-11T12:45:24.518Z,7.37
2018-05-11T12:47:52.720Z,8.83
2018-05-11T12:50:21.688Z,8.57
2018-05-11T12:52:49.935Z,8.00
2018-05-11T12:55:18.101Z,8.43
2018-05-11T12:57:46.330Z,7.73
2018-05-11T13:00:15.319Z,8.73
2018-05-11T13:02:44.274Z,8.30
2018-05-11T13:05:12.469Z,7.87
2018-05-11T13:07:40.687Z,11.23
2018-05-11T13:10:09.754Z,11.50
2018-05-11T13:12:38.735Z,11.93
2018-05-11T13:15:06.992Z,10.87
2018-05-11T13:17:35.309Z,10.63
2018-05-11T13:20:03.533Z,11.33
2018-05-11T13:22:31.758Z,10.80
2018-05-11T13:24:59.965Z,9.63
2018-05-11T13:27:28.183Z,9.80
2018-05-11T13:29:56.358Z,9.47
2018-05-11T13:32:24.601Z,11.47
2018-05-11T13:34:52.894Z,9.33
2018-05-11T13:37:21.095Z,7.87
2018-05-11T13:39:49.303Z,8.57
2018-05-11T13:42:17.506Z,9.80
2018-05-11T13:44:45.789Z,10.80
2018-05-11T13:47:14.075Z,9.97
2018-05-11T13:49:43.134Z,7.83
2018-05-11T13:52:12.061Z,10.63
2018-05-11T13:54:41.073Z,8.17
2018-05-11T13:57:10.137Z,12.03
2018-05-11T13:59:38.305Z,12.87
2018-05-11T14:02:06.541Z,9.77
2018-05-11T14:04:34.811Z,8.53
2018-05-11T14:07:02.940Z,11.87
2018-05-11T14:09:31.902Z,13.17
2018-05-11T14:12:00.173Z,13.77
2018-05-11T14:14:28.391Z,12.33
2018-05-11T14:16:57.341Z,10.07
2018-05-11T14:19:25.551Z,9.50
2018-05-11T14:21:54.562Z,9.93
2018-05-11T14:24:22.746Z,7.37
2018-05-11T14:26:50.964Z,10.27
2018-05-11T14:29:19.167Z,10.57
2018-05-11T14:31:51.000Z,9.93
2018-05-11T14:34:20.505Z,11.73
2018-05-11T14:36:48.694Z,8.93
2018-05-11T14:39:17.135Z,10.50
2018-05-11T14:41:45.234Z,9.77
2018-05-11T14:44:14.184Z,9.73
2018-05-11T14:46:42.390Z,12.00
2018-05-11T14:49:10.639Z,12.17
2018-05-11T14:51:38.821Z,10.33
2018-05-11T14:54:07.013Z,12.33
2018-05-11T14:56:35.255Z,10.40
2018-05-11T14:59:03.454Z,11.67
2018-05-11T15:01:31.688Z,10.07
2018-05-11T15:03:59.899Z,13.30
2018-05-11T15:06:28.074Z,12.50
2018-05-11T15:08:56.253Z,12.10
2018-05-11T15:11:25.256Z,10.20
2018-05-11T15:13:54.345Z,15.43
2018-05-11T15:16:23.317Z,11.60
2018-05-11T15:18:51.695Z,14.87
2018-05-11T15:21:19.922Z,9.40
2018-05-11T15:23:48.117Z,10.87
2018-05-11T15:26:16.295Z,13.70
2018-05-11T15:28:44.469Z,14.53
2018-05-11T15:31:12.816Z,13.43
2018-05-11T15:33:40.999Z,23.27
2018-05-11T15:36:09.314Z,8.87
2018-05-11T15:38:38.321Z,14.00
2018-05-11T15:41:07.303Z,9.90
2018-05-11T15:43:35.574Z,8.63
2018-05-11T15:46:03.816Z,12.43
2018-05-11T15:48:32.106Z,11.87
2018-05-11T15:51:01.143Z,12.03
2018-05-11T15:53:30.130Z,10.17
2018-05-11T15:55:59.111Z,9.87
2018-05-11T15:58:27.288Z,8.97
2018-05-11T16:00:56.247Z,6.63
2018-05-11T16:03:24.438Z,14.17
2018-05-11T16:05:52.685Z,10.67
2018-05-11T16:08:20.995Z,9.30
2018-05-11T16:10:49.215Z,11.20
2018-05-11T16:13:18.400Z,9.73
2018-05-11T16:15:46.691Z,9.00
2018-05-11T16:18:14.910Z,12.40
2018-05-11T16:20:43.584Z,13.83
2018-05-11T16:23:11.813Z,12.97
2018-05-11T16:25:40.006Z,10.97
2018-05-11T16:28:08.219Z,16.10
2018-05-11T16:30:37.299Z,11.63
2018-05-11T16:33:05.550Z,14.10
2018-05-11T16:35:33.787Z,11.57
2018-05-11T16:38:02.034Z,19.57
2018-05-11T16:40:31.410Z,15.53
2018-05-11T16:42:59.601Z,19.33
2018-05-11T16:45:27.788Z,16.47
2018-05-11T16:47:57.671Z,14.53
2018-05-11T16:50:26.022Z,14.83
2018-05-11T16:52:54.195Z,12.80
2018-05-11T16:55:22.399Z,16.67
2018-05-11T16:57:51.119Z,12.37
2018-05-11T17:00:19.367Z,11.03
2018-05-11T17:02:48.353Z,14.50
2018-05-11T17:05:16.567Z,13.17
2018-05-11T17:07:45.588Z,14.80
2018-05-11T17:10:13.857Z,13.53
2018-05-11T17:12:42.059Z,16.37
2018-05-11T17:15:11.019Z,12.13
2018-05-11T17:17:39.231Z,10.90
2018-05-11T17:20:08.261Z,12.90
2018-05-11T17:22:37.247Z,15.67
2018-05-11T17:25:06.265Z,13.20
2018-05-11T17:27:34.537Z,12.37
2018-05-11T17:30:02.844Z,13.37
2018-05-11T17:32:30.979Z,11.80
2018-05-11T17:34:59.255Z,14.93
2018-05-11T17:37:27.486Z,13.17
2018-05-11T17:39:56.523Z,16.50
2018-05-11T17:42:24.739Z,16.90
2018-05-11T17:44:53.786Z,17.40
2018-05-11T17:47:22.026Z,18.07
2018-05-11T17:49:51.051Z,18.47
2018-05-11T17:52:19.280Z,19.13
2018-05-11T17:54:47.478Z,22.90
2018-05-11T17:57:16.483Z,18.80
2018-05-11T17:59:45.510Z,21.20
2018-05-11T18:02:13.709Z,20.40
2018-05-11T18:04:41.965Z,21.17
2018-05-11T18:07:10.294Z,21.13
2018-05-11T18:09:39.574Z,21.47
2018-05-11T18:12:08.596Z,21.73
2018-05-11T18:14:37.561Z,25.57
2018-05-11T18:17:05.865Z,22.63
2018-05-11T18:19:34.174Z,21.00
2018-05-11T18:22:03.371Z,21.67
2018-05-11T18:24:31.592Z,26.93
2018-05-11T18:27:00.664Z,22.33
2018-05-11T18:29:28.880Z,22.30
2018-05-11T18:31:57.856Z,29.20
2018-05-11T18:34:29.742Z,25.23
2018-05-11T18:36:57.985Z,27.57
2018-05-11T18:39:26.568Z,22.83
2018-05-11T18:41:54.844Z,25.97
2018-05-11T18:44:23.145Z,24.07
2018-05-11T18:46:51.761Z,23.30
2018-05-11T18:49:21.308Z,23.70
2018-05-11T18:51:50.366Z,26.57
2018-05-11T18:54:18.809Z,34.40
2018-05-11T18:56:47.571Z,27.97
2018-05-11T18:59:15.788Z,30.53
2018-05-11T19:01:48.212Z,33.47
2018-05-11T19:04:17.697Z,33.93
2018-05-11T19:06:45.965Z,33.23
2018-05-11T19:09:14.207Z,34.33
2018-05-11T19:11:42.397Z,34.63
2018-05-11T19:14:10.605Z,35.37
2018-05-11T19:16:39.649Z,35.30
2018-05-11T19:19:07.874Z,36.57
2018-05-11T19:21:36.254Z,34.17
2018-05-11T19:24:04.502Z,35.50
2018-05-11T19:26:32.756Z,36.43
2018-05-11T19:29:00.952Z,35.23
2018-05-11T19:31:29.198Z,36.27
2018-05-11T19:33:57.444Z,37.47
2018-05-11T19:36:25.639Z,35.87
2018-05-11T19:38:53.855Z,37.37
2018-05-11T19:41:22.817Z,37.97
2018-05-11T19:43:51.018Z,41.50
2018-05-11T19:46:19.981Z,37.87
2018-05-11T19:48:48.280Z,37.60
2018-05-11T19:51:17.318Z,36.67
2018-05-11T19:53:45.561Z,37.73
2018-05-11T19:56:14.542Z,39.07
2018-05-11T19:58:43.648Z,39.10
2018-05-11T20:01:13.647Z,38.17
2018-05-11T20:03:41.880Z,38.80
2018-05-11T20:06:10.085Z,38.23
2018-05-11T20:08:38.268Z,38.43
2018-05-11T20:11:07.305Z,39.57
2018-05-11T20:13:35.511Z,38.80
2018-05-11T20:16:03.721Z,41.00
2018-05-11T20:18:32.745Z,40.47
2018-05-11T20:21:00.921Z,39.90
2018-05-11T20:23:30.729Z,39.70
2018-05-11T20:25:58.993Z,39.87
2018-05-11T20:28:27.207Z,41.77
2018-05-11T20:30:55.461Z,39.47
2018-05-11T20:33:24.715Z,41.33
2018-05-11T20:35:53.677Z,38.07
2018-05-11T20:38:22.033Z,38.00
2018-05-11T20:40:50.227Z,38.43
2018-05-11T20:43:18.490Z,39.43
2018-05-11T20:45:47.086Z,39.77
2018-05-11T20:50:50.908Z,39.57
2018-05-11T20:53:19.087Z,42.13
2018-05-11T20:55:47.382Z,41.23
2018-05-11T20:58:18.344Z,38.23
2018-05-11T21:00:47.222Z,39.70
2018-05-11T21:03:16.007Z,40.03
2018-05-11T21:05:45.243Z,38.27
2018-05-11T21:08:13.611Z,39.93
2018-05-11T21:10:42.172Z,39.03
2018-05-11T21:13:30.420Z,37.37
2018-05-11T21:15:59.130Z,37.40
2018-05-11T21:18:28.602Z,37.60
2018-05-11T21:20:57.575Z,37.80
2018-05-11T21:23:25.773Z,40.83
2018-05-11T21:25:54.146Z,40.00
2018-05-11T21:28:23.427Z,43.50
2018-05-11T21:30:52.150Z,39.23
2018-05-11T21:33:21.755Z,38.00
2018-05-11T21:35:51.515Z,39.07
2018-05-11T21:38:20.768Z,40.17
2018-05-11T21:40:49.727Z,40.10
2018-05-11T21:43:18.138Z,40.50
2018-05-11T21:45:46.644Z,43.37
2018-05-11T21:48:15.844Z,41.00
2018-05-11T21:50:50.410Z,45.87
2018-05-11T21:53:19.966Z,39.90
2018-05-11T21:55:50.413Z,44.53
2018-05-11T21:58:19.015Z,39.53
2018-05-11T22:00:49.307Z,41.00
2018-05-11T22:03:18.621Z,40.50
2018-05-11T22:05:47.472Z,39.97
2018-05-11T22:08:15.744Z,41.47
2018-05-11T22:10:44.226Z,40.40
2018-05-11T22:13:13.908Z,39.00
2018-05-11T22:15:46.122Z,41.20
2018-05-11T22:18:15.340Z,40.03
2018-05-11T22:20:44.343Z,39.43
2018-05-11T22:23:13.493Z,44.77
2018-05-11T22:25:41.732Z,37.97
2018-05-11T22:28:09.973Z,38.73
2018-05-11T22:30:39.104Z,39.10
2018-05-11T22:33:07.330Z,38.90
2018-05-11T22:35:35.515Z,41.63
2018-05-11T22:38:04.637Z,40.20
2018-05-11T22:40:33.114Z,38.43
2018-05-11T22:43:02.089Z,37.70
2018-05-11T22:45:31.165Z,42.73
2018-05-11T22:47:59.456Z,42.03
2018-05-11T22:50:36.562Z,42.33
2018-05-11T22:53:05.758Z,40.17
2018-05-11T22:55:33.987Z,36.10
2018-05-11T22:58:06.339Z,39.17
2018-05-11T23:00:43.027Z,35.90
2018-05-11T23:03:11.301Z,39.00
2018-05-11T23:05:39.758Z,37.23
2018-05-11T23:08:08.760Z,38.83
2018-05-11T23:10:37.088Z,37.17
2018-05-11T23:13:05.477Z,37.63
2018-05-11T23:15:33.777Z,37.17
2018-05-11T23:18:02.142Z,39.47
2018-05-11T23:20:30.476Z,38.17
2018-05-11T23:22:59.814Z,36.67
2018-05-11T23:25:28.122Z,43.47
2018-05-11T23:27:56.361Z,43.93
2018-05-11T23:30:24.594Z,40.50
2018-05-11T23:32:53.522Z,35.47
2018-05-11T23:35:21.762Z,38.33
2018-05-11T23:37:50.883Z,39.83
2018-05-11T23:40:19.135Z,37.53
2018-05-11T23:42:48.162Z,36.70
2018-05-11T23:45:16.462Z,37.43
2018-05-11T23:47:50.446Z,38.53
2018-05-11T23:50:24.230Z,35.90
2018-05-11T23:52:59.378Z,36.33
2018-05-11T23:55:33.349Z,33.37
2018-05-11T23:58:07.201Z,37.70
